sensor_id;sensor_type;location;lat;lon;timestamp;temperature;humidity
30206;DHT22;17010;51.306;3.150;2023-06-14T00:02:15;18.80;99.90
30206;DHT22;17010;51.306;3.150;2023-06-14T00:04:41;18.90;99.90
30206;DHT22;17010;51.306;3.150;2023-06-14T00:07:09;18.80;99.90
30206;DHT22;17010;51.306;3.150;2023-06-14T00:09:35;18.80;99.90
30206;DHT22;17010;51.306;3.150;2023-06-14T00:12:02;18.80;99.90
30206;DHT22;17010;51.306;3.150;2023-06-14T00:14:29;18.80;99.90
30206;DHT22;17010;51.306;3.150;2023-06-14T00:16:55;18.90;99.90
30206;DHT22;17010;51.306;3.150;2023-06-14T00:19:25;18.80;99.90
30206;DHT22;17010;51.306;3.150;2023-06-14T00:21:51;18.80;99.90
30206;DHT22;17010;51.306;3.150;2023-06-14T00:24:19;18.80;99.90
30206;DHT22;17010;51.306;3.150;2023-06-14T00:26:45;18.80;99.90
30206;DHT22;17010;51.306;3.150;2023-06-14T00:29:11;18.80;99.90
30206;DHT22;17010;51.306;3.150;2023-06-14T00:31:38;18.80;99.90
30206;DHT22;17010;51.306;3.150;2023-06-14T00:34:04;18.90;99.90
30206;DHT22;17010;51.306;3.150;2023-06-14T00:36:30;18.90;99.90
30206;DHT22;17010;51.306;3.150;2023-06-14T00:38:56;18.90;99.90
30206;DHT22;17010;51.306;3.150;2023-06-14T00:41:22;18.90;99.90
30206;DHT22;17010;51.306;3.150;2023-06-14T00:43:50;18.80;99.90
30206;DHT22;17010;51.306;3.150;2023-06-14T00:46:16;18.80;99.90
30206;DHT22;17010;51.306;3.150;2023-06-14T00:48:43;18.80;99.90
30206;DHT22;17010;51.306;3.150;2023-06-14T00:51:09;18.70;99.90
30206;DHT22;17010;51.306;3.150;2023-06-14T00:53:35;18.70;99.90
30206;DHT22;17010;51.306;3.150;2023-06-14T00:56:02;18.70;99.90
30206;DHT22;17010;51.306;3.150;2023-06-14T00:58:28;18.60;99.90
30206;DHT22;17010;51.306;3.150;2023-06-14T01:00:55;18.60;99.90
30206;DHT22;17010;51.306;3.150;2023-06-14T01:03:22;18.60;99.90
30206;DHT22;17010;51.306;3.150;2023-06-14T01:05:51;18.60;99.90
30206;DHT22;17010;51.306;3.150;2023-06-14T01:08:31;18.60;99.90
30206;DHT22;17010;51.306;3.150;2023-06-14T01:11:03;18.60;99.90
30206;DHT22;17010;51.306;3.150;2023-06-14T01:13:36;18.60;99.90
30206;DHT22;17010;51.306;3.150;2023-06-14T01:16:03;18.60;99.90
30206;DHT22;17010;51.306;3.150;2023-06-14T01:18:29;18.60;99.90
30206;DHT22;17010;51.306;3.150;2023-06-14T01:20:55;18.60;99.90
30206;DHT22;17010;51.306;3.150;2023-06-14T01:23:23;18.60;99.90
30206;DHT22;17010;51.306;3.150;2023-06-14T01:25:49;18.60;99.90
30206;DHT22;17010;51.306;3.150;2023-06-14T01:28:19;18.50;99.90
30206;DHT22;17010;51.306;3.150;2023-06-14T01:30:53;18.50;99.90
30206;DHT22;17010;51.306;3.150;2023-06-14T01:33:22;18.50;99.90
30206;DHT22;17010;51.306;3.150;2023-06-14T01:35:50;18.70;99.90
30206;DHT22;17010;51.306;3.150;2023-06-14T01:38:22;18.70;99.90
30206;DHT22;17010;51.306;3.150;2023-06-14T01:40:48;18.70;99.90
30206;DHT22;17010;51.306;3.150;2023-06-14T01:43:15;18.60;99.90
30206;DHT22;17010;51.306;3.150;2023-06-14T01:45:42;18.70;99.90
30206;DHT22;17010;51.306;3.150;2023-06-14T01:48:09;18.70;99.90
30206;DHT22;17010;51.306;3.150;2023-06-14T01:50:35;18.60;99.90
30206;DHT22;17010;51.306;3.150;2023-06-14T01:53:01;18.60;99.90
30206;DHT22;17010;51.306;3.150;2023-06-14T01:55:28;18.60;99.90
30206;DHT22;17010;51.306;3.150;2023-06-14T01:57:54;18.50;99.90
30206;DHT22;17010;51.306;3.150;2023-06-14T02:00:20;18.50;99.90
30206;DHT22;17010;51.306;3.150;2023-06-14T02:02:47;18.60;99.90
30206;DHT22;17010;51.306;3.150;2023-06-14T02:05:13;18.60;99.90
30206;DHT22;17010;51.306;3.150;2023-06-14T02:07:41;18.70;99.90
30206;DHT22;17010;51.306;3.150;2023-06-14T02:10:07;18.70;99.90
30206;DHT22;17010;51.306;3.150;2023-06-14T02:12:34;18.70;99.90
30206;DHT22;17010;51.306;3.150;2023-06-14T02:15:00;18.70;99.90
30206;DHT22;17010;51.306;3.150;2023-06-14T02:17:26;18.60;99.90
30206;DHT22;17010;51.306;3.150;2023-06-14T02:19:52;18.60;99.90
30206;DHT22;17010;51.306;3.150;2023-06-14T02:22:18;18.60;99.90
30206;DHT22;17010;51.306;3.150;2023-06-14T02:24:46;18.60;99.90
30206;DHT22;17010;51.306;3.150;2023-06-14T02:27:13;18.60;99.90
30206;DHT22;17010;51.306;3.150;2023-06-14T02:29:39;18.60;99.90
30206;DHT22;17010;51.306;3.150;2023-06-14T02:32:06;18.60;99.90
30206;DHT22;17010;51.306;3.150;2023-06-14T02:34:35;18.60;99.90
30206;DHT22;17010;51.306;3.150;2023-06-14T02:37:02;18.60;99.90
30206;DHT22;17010;51.306;3.150;2023-06-14T02:39:31;18.60;99.90
30206;DHT22;17010;51.306;3.150;2023-06-14T02:41:57;18.50;99.90
30206;DHT22;17010;51.306;3.150;2023-06-14T02:44:27;18.40;99.90
30206;DHT22;17010;51.306;3.150;2023-06-14T02:46:54;18.40;99.90
30206;DHT22;17010;51.306;3.150;2023-06-14T02:49:22;18.40;99.90
30206;DHT22;17010;51.306;3.150;2023-06-14T02:51:48;18.30;99.90
30206;DHT22;17010;51.306;3.150;2023-06-14T02:54:15;18.30;99.90
30206;DHT22;17010;51.306;3.150;2023-06-14T02:56:41;18.30;99.90
30206;DHT22;17010;51.306;3.150;2023-06-14T02:59:07;18.10;99.90
30206;DHT22;17010;51.306;3.150;2023-06-14T03:01:35;18.00;99.90
30206;DHT22;17010;51.306;3.150;2023-06-14T03:04:01;17.90;99.90
30206;DHT22;17010;51.306;3.150;2023-06-14T03:06:32;17.80;99.90
30206;DHT22;17010;51.306;3.150;2023-06-14T03:09:00;17.80;99.90
30206;DHT22;17010;51.306;3.150;2023-06-14T03:11:27;17.80;99.90
30206;DHT22;17010;51.306;3.150;2023-06-14T03:13:53;17.80;99.90
30206;DHT22;17010;51.306;3.150;2023-06-14T03:16:19;17.70;99.90
30206;DHT22;17010;51.306;3.150;2023-06-14T03:18:53;17.70;99.90
30206;DHT22;17010;51.306;3.150;2023-06-14T03:21:19;17.70;99.90
30206;DHT22;17010;51.306;3.150;2023-06-14T03:23:48;17.70;99.90
30206;DHT22;17010;51.306;3.150;2023-06-14T03:26:15;17.70;99.90
30206;DHT22;17010;51.306;3.150;2023-06-14T03:28:44;17.80;99.90
30206;DHT22;17010;51.306;3.150;2023-06-14T03:31:12;17.80;99.90
30206;DHT22;17010;51.306;3.150;2023-06-14T03:33:38;17.80;99.90
30206;DHT22;17010;51.306;3.150;2023-06-14T03:36:05;17.70;99.90
30206;DHT22;17010;51.306;3.150;2023-06-14T03:38:32;17.60;99.90
30206;DHT22;17010;51.306;3.150;2023-06-14T03:40:59;17.50;99.90
30206;DHT22;17010;51.306;3.150;2023-06-14T03:43:25;17.50;99.90
30206;DHT22;17010;51.306;3.150;2023-06-14T03:45:51;17.50;99.90
30206;DHT22;17010;51.306;3.150;2023-06-14T03:48:17;17.50;99.90
30206;DHT22;17010;51.306;3.150;2023-06-14T03:50:44;17.70;99.90
30206;DHT22;17010;51.306;3.150;2023-06-14T03:53:10;17.80;99.90
30206;DHT22;17010;51.306;3.150;2023-06-14T03:55:37;17.80;99.90
30206;DHT22;17010;51.306;3.150;2023-06-14T03:58:04;17.80;99.90
30206;DHT22;17010;51.306;3.150;2023-06-14T04:00:31;17.80;99.90
30206;DHT22;17010;51.306;3.150;2023-06-14T04:02:58;17.80;99.90
30206;DHT22;17010;51.306;3.150;2023-06-14T04:05:24;17.70;99.90
30206;DHT22;17010;51.306;3.150;2023-06-14T04:07:52;17.70;99.90
30206;DHT22;17010;51.306;3.150;2023-06-14T04:10:21;17.70;99.90
30206;DHT22;17010;51.306;3.150;2023-06-14T04:12:48;17.70;99.90
30206;DHT22;17010;51.306;3.150;2023-06-14T04:15:14;17.80;99.90
30206;DHT22;17010;51.306;3.150;2023-06-14T04:17:40;17.70;99.90
30206;DHT22;17010;51.306;3.150;2023-06-14T04:20:07;17.80;99.90
30206;DHT22;17010;51.306;3.150;2023-06-14T04:22:35;17.80;99.90
30206;DHT22;17010;51.306;3.150;2023-06-14T04:25:02;17.90;99.90
30206;DHT22;17010;51.306;3.150;2023-06-14T04:27:28;18.00;99.90
30206;DHT22;17010;51.306;3.150;2023-06-14T04:29:57;18.10;99.90
30206;DHT22;17010;51.306;3.150;2023-06-14T04:32:25;18.10;99.90
30206;DHT22;17010;51.306;3.150;2023-06-14T04:34:58;18.20;99.90
30206;DHT22;17010;51.306;3.150;2023-06-14T04:37:25;18.30;99.90
30206;DHT22;17010;51.306;3.150;2023-06-14T04:39:55;18.40;99.90
30206;DHT22;17010;51.306;3.150;2023-06-14T04:42:23;18.40;99.90
30206;DHT22;17010;51.306;3.150;2023-06-14T04:44:51;18.50;99.90
30206;DHT22;17010;51.306;3.150;2023-06-14T04:47:21;18.50;99.90
30206;DHT22;17010;51.306;3.150;2023-06-14T04:49:47;18.60;99.90
30206;DHT22;17010;51.306;3.150;2023-06-14T04:52:13;18.60;99.90
30206;DHT22;17010;51.306;3.150;2023-06-14T04:54:40;18.60;99.90
30206;DHT22;17010;51.306;3.150;2023-06-14T04:57:09;18.60;99.90
30206;DHT22;17010;51.306;3.150;2023-06-14T04:59:43;18.70;99.90
30206;DHT22;17010;51.306;3.150;2023-06-14T05:02:10;18.70;99.90
30206;DHT22;17010;51.306;3.150;2023-06-14T05:04:37;18.80;99.90
30206;DHT22;17010;51.306;3.150;2023-06-14T05:07:09;18.80;99.90
30206;DHT22;17010;51.306;3.150;2023-06-14T05:09:40;18.90;99.90
30206;DHT22;17010;51.306;3.150;2023-06-14T05:12:06;18.90;99.90
30206;DHT22;17010;51.306;3.150;2023-06-14T05:14:36;18.90;99.90
30206;DHT22;17010;51.306;3.150;2023-06-14T05:17:02;19.00;99.90
30206;DHT22;17010;51.306;3.150;2023-06-14T05:19:28;19.10;99.90
30206;DHT22;17010;51.306;3.150;2023-06-14T05:21:54;19.10;99.90
30206;DHT22;17010;51.306;3.150;2023-06-14T05:24:20;19.30;99.90
30206;DHT22;17010;51.306;3.150;2023-06-14T05:26:47;19.30;99.90
30206;DHT22;17010;51.306;3.150;2023-06-14T05:29:13;19.50;99.90
30206;DHT22;17010;51.306;3.150;2023-06-14T05:31:39;19.90;99.90
30206;DHT22;17010;51.306;3.150;2023-06-14T05:34:06;20.30;99.90
30206;DHT22;17010;51.306;3.150;2023-06-14T05:36:32;20.70;99.90
30206;DHT22;17010;51.306;3.150;2023-06-14T05:38:58;21.10;99.90
30206;DHT22;17010;51.306;3.150;2023-06-14T05:41:26;21.70;99.90
30206;DHT22;17010;51.306;3.150;2023-06-14T05:43:54;22.10;99.90
30206;DHT22;17010;51.306;3.150;2023-06-14T05:46:20;22.60;99.90
30206;DHT22;17010;51.306;3.150;2023-06-14T05:48:54;23.10;99.90
30206;DHT22;17010;51.306;3.150;2023-06-14T05:51:21;23.40;99.90
30206;DHT22;17010;51.306;3.150;2023-06-14T05:53:49;23.90;99.90
30206;DHT22;17010;51.306;3.150;2023-06-14T05:56:16;24.20;99.90
30206;DHT22;17010;51.306;3.150;2023-06-14T05:58:47;24.40;99.90
30206;DHT22;17010;51.306;3.150;2023-06-14T06:01:14;24.50;99.90
30206;DHT22;17010;51.306;3.150;2023-06-14T06:03:41;24.80;99.90
30206;DHT22;17010;51.306;3.150;2023-06-14T06:06:12;25.10;99.90
30206;DHT22;17010;51.306;3.150;2023-06-14T06:08:38;25.30;99.90
30206;DHT22;17010;51.306;3.150;2023-06-14T06:11:05;25.60;99.90
30206;DHT22;17010;51.306;3.150;2023-06-14T06:13:31;25.20;99.90
30206;DHT22;17010;51.306;3.150;2023-06-14T06:16:00;25.20;99.90
30206;DHT22;17010;51.306;3.150;2023-06-14T06:18:26;25.80;99.90
30206;DHT22;17010;51.306;3.150;2023-06-14T06:20:52;26.10;99.90
30206;DHT22;17010;51.306;3.150;2023-06-14T06:23:18;26.60;99.90
30206;DHT22;17010;51.306;3.150;2023-06-14T06:25:46;26.70;99.90
30206;DHT22;17010;51.306;3.150;2023-06-14T06:28:12;26.70;99.90
30206;DHT22;17010;51.306;3.150;2023-06-14T06:30:38;26.80;99.90
30206;DHT22;17010;51.306;3.150;2023-06-14T06:33:04;26.90;99.90
30206;DHT22;17010;51.306;3.150;2023-06-14T06:35:31;27.00;99.90
30206;DHT22;17010;51.306;3.150;2023-06-14T06:37:59;27.30;99.90
30206;DHT22;17010;51.306;3.150;2023-06-14T06:40:26;27.50;99.90
30206;DHT22;17010;51.306;3.150;2023-06-14T06:42:53;27.70;99.90
30206;DHT22;17010;51.306;3.150;2023-06-14T06:45:20;27.80;99.90
30206;DHT22;17010;51.306;3.150;2023-06-14T06:47:46;28.20;99.90
30206;DHT22;17010;51.306;3.150;2023-06-14T06:50:13;28.00;99.90
30206;DHT22;17010;51.306;3.150;2023-06-14T06:52:39;28.10;99.90
30206;DHT22;17010;51.306;3.150;2023-06-14T06:55:05;28.50;99.90
30206;DHT22;17010;51.306;3.150;2023-06-14T06:57:31;28.80;99.90
30206;DHT22;17010;51.306;3.150;2023-06-14T06:59:58;29.10;99.90
30206;DHT22;17010;51.306;3.150;2023-06-14T07:02:24;28.70;99.90
30206;DHT22;17010;51.306;3.150;2023-06-14T07:04:51;28.50;99.90
30206;DHT22;17010;51.306;3.150;2023-06-14T07:07:19;28.80;99.90
30206;DHT22;17010;51.306;3.150;2023-06-14T07:09:45;29.10;99.90
30206;DHT22;17010;51.306;3.150;2023-06-14T07:12:12;29.40;99.90
30206;DHT22;17010;51.306;3.150;2023-06-14T07:14:39;29.80;99.90
30206;DHT22;17010;51.306;3.150;2023-06-14T07:17:13;30.00;99.90
30206;DHT22;17010;51.306;3.150;2023-06-14T07:19:40;30.30;99.90
30206;DHT22;17010;51.306;3.150;2023-06-14T07:22:06;30.60;99.90
30206;DHT22;17010;51.306;3.150;2023-06-14T07:24:32;30.70;99.90
30206;DHT22;17010;51.306;3.150;2023-06-14T07:26:58;31.00;99.90
30206;DHT22;17010;51.306;3.150;2023-06-14T07:29:25;31.20;99.90
30206;DHT22;17010;51.306;3.150;2023-06-14T07:31:53;31.50;99.90
30206;DHT22;17010;51.306;3.150;2023-06-14T07:34:19;31.70;99.90
30206;DHT22;17010;51.306;3.150;2023-06-14T07:36:46;31.90;99.90
30206;DHT22;17010;51.306;3.150;2023-06-14T07:39:12;32.10;99.90
30206;DHT22;17010;51.306;3.150;2023-06-14T07:41:42;32.20;99.90
30206;DHT22;17010;51.306;3.150;2023-06-14T07:44:08;32.20;99.90
30206;DHT22;17010;51.306;3.150;2023-06-14T07:46:35;32.60;99.90
30206;DHT22;17010;51.306;3.150;2023-06-14T07:49:03;32.70;99.90
30206;DHT22;17010;51.306;3.150;2023-06-14T07:51:29;33.20;99.90
30206;DHT22;17010;51.306;3.150;2023-06-14T07:53:55;33.10;99.90
30206;DHT22;17010;51.306;3.150;2023-06-14T07:56:22;33.30;99.90
30206;DHT22;17010;51.306;3.150;2023-06-14T07:58:49;33.50;99.70
30206;DHT22;17010;51.306;3.150;2023-06-14T08:01:15;33.70;99.90
30206;DHT22;17010;51.306;3.150;2023-06-14T08:03:43;33.40;98.30
30206;DHT22;17010;51.306;3.150;2023-06-14T08:06:09;33.50;98.80
30206;DHT22;17010;51.306;3.150;2023-06-14T08:08:36;33.30;98.20
30206;DHT22;17010;51.306;3.150;2023-06-14T08:11:02;33.10;99.90
30206;DHT22;17010;51.306;3.150;2023-06-14T08:13:28;33.40;99.90
30206;DHT22;17010;51.306;3.150;2023-06-14T08:15:54;34.10;99.80
30206;DHT22;17010;51.306;3.150;2023-06-14T08:18:23;34.50;99.90
30206;DHT22;17010;51.306;3.150;2023-06-14T08:20:52;34.10;99.90
30206;DHT22;17010;51.306;3.150;2023-06-14T08:23:18;33.90;99.90
30206;DHT22;17010;51.306;3.150;2023-06-14T08:25:45;32.80;99.90
30206;DHT22;17010;51.306;3.150;2023-06-14T08:28:11;31.90;99.90
30206;DHT22;17010;51.306;3.150;2023-06-14T08:30:38;30.70;99.90
30206;DHT22;17010;51.306;3.150;2023-06-14T08:33:04;29.90;99.90
30206;DHT22;17010;51.306;3.150;2023-06-14T08:35:32;30.10;99.90
30206;DHT22;17010;51.306;3.150;2023-06-14T08:37:59;30.00;99.90
30206;DHT22;17010;51.306;3.150;2023-06-14T08:40:26;29.40;99.90
30206;DHT22;17010;51.306;3.150;2023-06-14T08:42:54;29.10;99.90
30206;DHT22;17010;51.306;3.150;2023-06-14T08:45:24;28.60;99.90
30206;DHT22;17010;51.306;3.150;2023-06-14T08:47:51;28.50;99.90
30206;DHT22;17010;51.306;3.150;2023-06-14T08:50:25;28.60;99.90
30206;DHT22;17010;51.306;3.150;2023-06-14T08:52:58;28.90;99.90
30206;DHT22;17010;51.306;3.150;2023-06-14T08:55:30;29.00;99.90
30206;DHT22;17010;51.306;3.150;2023-06-14T08:57:57;28.90;99.90
30206;DHT22;17010;51.306;3.150;2023-06-14T09:00:28;28.70;99.90
30206;DHT22;17010;51.306;3.150;2023-06-14T09:02:54;28.70;99.90
30206;DHT22;17010;51.306;3.150;2023-06-14T09:05:28;28.60;99.90
30206;DHT22;17010;51.306;3.150;2023-06-14T09:07:56;29.10;99.90
30206;DHT22;17010;51.306;3.150;2023-06-14T09:10:26;29.20;99.90
30206;DHT22;17010;51.306;3.150;2023-06-14T09:12:53;29.50;99.90
30206;DHT22;17010;51.306;3.150;2023-06-14T09:15:20;30.20;99.90
30206;DHT22;17010;51.306;3.150;2023-06-14T09:17:48;30.30;99.90
30206;DHT22;17010;51.306;3.150;2023-06-14T09:20:15;30.30;99.90
30206;DHT22;17010;51.306;3.150;2023-06-14T09:22:45;30.30;99.90
30206;DHT22;17010;51.306;3.150;2023-06-14T09:25:11;29.90;99.90
30206;DHT22;17010;51.306;3.150;2023-06-14T09:27:41;30.60;99.90
30206;DHT22;17010;51.306;3.150;2023-06-14T09:30:11;31.00;99.90
30206;DHT22;17010;51.306;3.150;2023-06-14T09:32:38;31.10;99.90
30206;DHT22;17010;51.306;3.150;2023-06-14T09:35:09;30.80;99.90
30206;DHT22;17010;51.306;3.150;2023-06-14T09:37:35;30.30;99.90
30206;DHT22;17010;51.306;3.150;2023-06-14T09:40:06;29.80;99.90
30206;DHT22;17010;51.306;3.150;2023-06-14T09:42:33;29.60;99.90
30206;DHT22;17010;51.306;3.150;2023-06-14T09:45:03;29.70;99.90
30206;DHT22;17010;51.306;3.150;2023-06-14T09:47:34;30.10;99.90
30206;DHT22;17010;51.306;3.150;2023-06-14T09:50:00;29.90;99.90
30206;DHT22;17010;51.306;3.150;2023-06-14T09:52:26;29.90;99.90
30206;DHT22;17010;51.306;3.150;2023-06-14T09:54:54;29.70;99.90
30206;DHT22;17010;51.306;3.150;2023-06-14T09:57:23;29.30;99.90
30206;DHT22;17010;51.306;3.150;2023-06-14T09:59:56;28.50;99.90
30206;DHT22;17010;51.306;3.150;2023-06-14T10:02:26;28.40;99.90
30206;DHT22;17010;51.306;3.150;2023-06-14T10:05:06;28.20;99.90
30206;DHT22;17010;51.306;3.150;2023-06-14T10:07:58;28.00;99.90
30206;DHT22;17010;51.306;3.150;2023-06-14T10:10:27;27.80;99.90
30206;DHT22;17010;51.306;3.150;2023-06-14T10:12:53;27.20;99.90
30206;DHT22;17010;51.306;3.150;2023-06-14T10:15:48;27.20;99.90
30206;DHT22;17010;51.306;3.150;2023-06-14T10:21:01;27.20;99.90
30206;DHT22;17010;51.306;3.150;2023-06-14T10:23:30;27.30;99.90
30206;DHT22;17010;51.306;3.150;2023-06-14T10:25:59;28.00;99.90
30206;DHT22;17010;51.306;3.150;2023-06-14T10:28:26;27.90;99.90
30206;DHT22;17010;51.306;3.150;2023-06-14T10:31:11;27.90;99.90
30206;DHT22;17010;51.306;3.150;2023-06-14T10:33:50;28.30;99.90
30206;DHT22;17010;51.306;3.150;2023-06-14T10:41:52;28.80;99.90
30206;DHT22;17010;51.306;3.150;2023-06-14T10:46:54;28.70;99.90
30206;DHT22;17010;51.306;3.150;2023-06-14T10:49:41;28.90;99.90
30206;DHT22;17010;51.306;3.150;2023-06-14T10:52:13;29.40;99.90
30206;DHT22;17010;51.306;3.150;2023-06-14T10:57:41;28.50;99.90
30206;DHT22;17010;51.306;3.150;2023-06-14T11:00:10;28.60;99.90
30206;DHT22;17010;51.306;3.150;2023-06-14T11:05:31;28.20;99.90
30206;DHT22;17010;51.306;3.150;2023-06-14T11:10:41;28.30;99.90
30206;DHT22;17010;51.306;3.150;2023-06-14T11:13:13;27.60;99.90
30206;DHT22;17010;51.306;3.150;2023-06-14T11:15:46;27.20;99.90
30206;DHT22;17010;51.306;3.150;2023-06-14T11:18:14;26.90;99.90
30206;DHT22;17010;51.306;3.150;2023-06-14T11:20:45;26.90;99.90
30206;DHT22;17010;51.306;3.150;2023-06-14T11:23:11;26.90;99.90
30206;DHT22;17010;51.306;3.150;2023-06-14T11:25:38;26.60;99.90
30206;DHT22;17010;51.306;3.150;2023-06-14T11:28:04;26.40;99.90
30206;DHT22;17010;51.306;3.150;2023-06-14T11:30:31;26.40;99.90
30206;DHT22;17010;51.306;3.150;2023-06-14T11:33:00;26.70;99.90
30206;DHT22;17010;51.306;3.150;2023-06-14T11:35:26;26.70;99.90
30206;DHT22;17010;51.306;3.150;2023-06-14T11:37:53;26.70;99.90
30206;DHT22;17010;51.306;3.150;2023-06-14T11:40:24;27.10;99.90
30206;DHT22;17010;51.306;3.150;2023-06-14T11:42:59;27.20;99.90
30206;DHT22;17010;51.306;3.150;2023-06-14T11:45:29;27.40;99.90
30206;DHT22;17010;51.306;3.150;2023-06-14T11:47:57;27.10;99.90
30206;DHT22;17010;51.306;3.150;2023-06-14T11:50:24;26.50;99.90
30206;DHT22;17010;51.306;3.150;2023-06-14T11:52:59;26.30;99.90
30206;DHT22;17010;51.306;3.150;2023-06-14T11:55:29;26.50;99.90
30206;DHT22;17010;51.306;3.150;2023-06-14T11:57:56;26.80;99.90
30206;DHT22;17010;51.306;3.150;2023-06-14T12:00:25;26.80;99.90
30206;DHT22;17010;51.306;3.150;2023-06-14T12:02:54;27.00;99.90
30206;DHT22;17010;51.306;3.150;2023-06-14T12:05:22;27.20;99.90
30206;DHT22;17010;51.306;3.150;2023-06-14T12:07:49;27.40;99.90
30206;DHT22;17010;51.306;3.150;2023-06-14T12:10:17;27.60;99.90
30206;DHT22;17010;51.306;3.150;2023-06-14T12:12:43;27.50;99.90
30206;DHT22;17010;51.306;3.150;2023-06-14T12:15:10;27.20;99.90
30206;DHT22;17010;51.306;3.150;2023-06-14T12:17:39;26.80;99.90
30206;DHT22;17010;51.306;3.150;2023-06-14T12:20:13;26.80;99.90
30206;DHT22;17010;51.306;3.150;2023-06-14T12:22:59;26.60;99.90
30206;DHT22;17010;51.306;3.150;2023-06-14T12:25:33;26.60;99.90
30206;DHT22;17010;51.306;3.150;2023-06-14T12:28:09;26.20;99.90
30206;DHT22;17010;51.306;3.150;2023-06-14T12:30:36;25.40;99.90
30206;DHT22;17010;51.306;3.150;2023-06-14T12:33:06;25.20;99.90
30206;DHT22;17010;51.306;3.150;2023-06-14T12:35:33;25.40;99.90
30206;DHT22;17010;51.306;3.150;2023-06-14T12:37:59;25.30;99.90
30206;DHT22;17010;51.306;3.150;2023-06-14T12:40:26;25.50;99.90
30206;DHT22;17010;51.306;3.150;2023-06-14T12:42:52;25.40;99.90
30206;DHT22;17010;51.306;3.150;2023-06-14T12:45:18;25.10;99.90
30206;DHT22;17010;51.306;3.150;2023-06-14T12:47:44;25.10;99.90
30206;DHT22;17010;51.306;3.150;2023-06-14T12:50:12;25.20;99.90
30206;DHT22;17010;51.306;3.150;2023-06-14T12:52:38;25.30;99.90
30206;DHT22;17010;51.306;3.150;2023-06-14T12:55:05;25.80;99.90
30206;DHT22;17010;51.306;3.150;2023-06-14T12:57:31;26.10;99.90
30206;DHT22;17010;51.306;3.150;2023-06-14T12:59:59;26.10;99.90
30206;DHT22;17010;51.306;3.150;2023-06-14T13:02:25;26.10;99.90
30206;DHT22;17010;51.306;3.150;2023-06-14T13:04:52;26.00;99.90
30206;DHT22;17010;51.306;3.150;2023-06-14T13:07:19;25.80;99.90
30206;DHT22;17010;51.306;3.150;2023-06-14T13:09:45;26.00;99.90
30206;DHT22;17010;51.306;3.150;2023-06-14T13:12:12;25.70;99.90
30206;DHT22;17010;51.306;3.150;2023-06-14T13:14:39;25.80;99.90
30206;DHT22;17010;51.306;3.150;2023-06-14T13:17:09;25.90;99.90
30206;DHT22;17010;51.306;3.150;2023-06-14T13:19:35;25.40;99.90
30206;DHT22;17010;51.306;3.150;2023-06-14T13:22:02;25.10;99.90
30206;DHT22;17010;51.306;3.150;2023-06-14T13:24:29;25.30;99.90
30206;DHT22;17010;51.306;3.150;2023-06-14T13:26:57;25.50;99.90
30206;DHT22;17010;51.306;3.150;2023-06-14T13:29:24;25.40;99.90
30206;DHT22;17010;51.306;3.150;2023-06-14T13:31:50;25.40;99.90
30206;DHT22;17010;51.306;3.150;2023-06-14T13:34:16;25.00;99.90
30206;DHT22;17010;51.306;3.150;2023-06-14T13:36:43;25.00;99.90
30206;DHT22;17010;51.306;3.150;2023-06-14T13:39:12;25.30;99.90
30206;DHT22;17010;51.306;3.150;2023-06-14T13:41:39;25.30;99.90
30206;DHT22;17010;51.306;3.150;2023-06-14T13:44:05;25.40;99.90
30206;DHT22;17010;51.306;3.150;2023-06-14T13:46:31;25.10;99.90
30206;DHT22;17010;51.306;3.150;2023-06-14T13:48:57;25.10;99.90
30206;DHT22;17010;51.306;3.150;2023-06-14T13:51:27;24.60;99.90
30206;DHT22;17010;51.306;3.150;2023-06-14T13:53:53;24.30;99.90
30206;DHT22;17010;51.306;3.150;2023-06-14T13:56:21;24.10;99.90
30206;DHT22;17010;51.306;3.150;2023-06-14T13:58:48;23.90;99.90
30206;DHT22;17010;51.306;3.150;2023-06-14T14:01:14;23.70;99.90
30206;DHT22;17010;51.306;3.150;2023-06-14T14:03:42;23.50;99.90
30206;DHT22;17010;51.306;3.150;2023-06-14T14:06:08;23.00;99.90
30206;DHT22;17010;51.306;3.150;2023-06-14T14:08:35;22.90;99.90
30206;DHT22;17010;51.306;3.150;2023-06-14T14:11:02;22.70;99.90
30206;DHT22;17010;51.306;3.150;2023-06-14T14:13:28;22.60;99.90
30206;DHT22;17010;51.306;3.150;2023-06-14T14:15:55;22.70;99.90
30206;DHT22;17010;51.306;3.150;2023-06-14T14:18:22;22.70;99.90
30206;DHT22;17010;51.306;3.150;2023-06-14T14:20:48;22.60;99.90
30206;DHT22;17010;51.306;3.150;2023-06-14T14:23:14;22.60;99.90
30206;DHT22;17010;51.306;3.150;2023-06-14T14:25:40;22.80;99.90
30206;DHT22;17010;51.306;3.150;2023-06-14T14:28:07;22.90;99.90
30206;DHT22;17010;51.306;3.150;2023-06-14T14:30:33;23.00;99.90
30206;DHT22;17010;51.306;3.150;2023-06-14T14:33:00;22.90;99.90
30206;DHT22;17010;51.306;3.150;2023-06-14T14:35:26;22.80;99.90
30206;DHT22;17010;51.306;3.150;2023-06-14T14:38:00;22.50;99.90
30206;DHT22;17010;51.306;3.150;2023-06-14T14:40:36;22.40;99.90
30206;DHT22;17010;51.306;3.150;2023-06-14T14:46:22;22.30;99.90
30206;DHT22;17010;51.306;3.150;2023-06-14T14:48:49;22.40;99.90
30206;DHT22;17010;51.306;3.150;2023-06-14T14:51:15;22.60;99.90
30206;DHT22;17010;51.306;3.150;2023-06-14T14:53:44;22.80;99.90
30206;DHT22;17010;51.306;3.150;2023-06-14T14:56:11;22.90;99.90
30206;DHT22;17010;51.306;3.150;2023-06-14T14:58:38;23.10;99.90
30206;DHT22;17010;51.306;3.150;2023-06-14T15:01:04;23.40;99.90
30206;DHT22;17010;51.306;3.150;2023-06-14T15:03:31;23.60;99.90
30206;DHT22;17010;51.306;3.150;2023-06-14T15:05:57;23.50;99.90
30206;DHT22;17010;51.306;3.150;2023-06-14T15:08:26;23.60;99.90
30206;DHT22;17010;51.306;3.150;2023-06-14T15:10:52;23.70;99.90
30206;DHT22;17010;51.306;3.150;2023-06-14T15:13:18;23.70;99.90
30206;DHT22;17010;51.306;3.150;2023-06-14T15:15:45;23.90;99.90
30206;DHT22;17010;51.306;3.150;2023-06-14T15:18:13;23.90;99.90
30206;DHT22;17010;51.306;3.150;2023-06-14T15:20:40;24.00;99.90
30206;DHT22;17010;51.306;3.150;2023-06-14T15:23:07;23.90;99.90
30206;DHT22;17010;51.306;3.150;2023-06-14T15:25:34;23.90;99.90
30206;DHT22;17010;51.306;3.150;2023-06-14T15:28:01;23.80;99.90
30206;DHT22;17010;51.306;3.150;2023-06-14T15:30:28;23.90;99.90
30206;DHT22;17010;51.306;3.150;2023-06-14T15:32:56;24.00;99.90
30206;DHT22;17010;51.306;3.150;2023-06-14T15:35:29;24.00;99.90
30206;DHT22;17010;51.306;3.150;2023-06-14T15:37:55;24.10;99.90
30206;DHT22;17010;51.306;3.150;2023-06-14T15:40:22;24.20;99.90
30206;DHT22;17010;51.306;3.150;2023-06-14T15:42:48;24.20;99.90
30206;DHT22;17010;51.306;3.150;2023-06-14T15:45:14;24.10;99.90
30206;DHT22;17010;51.306;3.150;2023-06-14T15:47:41;24.10;99.90
30206;DHT22;17010;51.306;3.150;2023-06-14T15:50:08;24.10;99.90
30206;DHT22;17010;51.306;3.150;2023-06-14T15:52:34;24.00;99.90
30206;DHT22;17010;51.306;3.150;2023-06-14T15:55:01;24.00;99.90
30206;DHT22;17010;51.306;3.150;2023-06-14T15:57:27;24.00;99.90